sensor_id;sensor_type;location;lat;lon;timestamp;pressure;altitude;pressure_sealevel;temperature;humidity
12468;BME280;57850;52.922;6.256;2023-03-25T00:01:02;100298.59;;;12.48;nan
12468;BME280;57850;52.922;6.256;2023-03-25T00:03:33;100280.25;;;12.65;nan
12468;BME280;57850;52.922;6.256;2023-03-25T00:06:04;100276.69;;;12.82;nan
12468;BME280;57850;52.922;6.256;2023-03-25T00:08:31;100274.50;;;12.74;nan
12468;BME280;57850;52.922;6.256;2023-03-25T00:11:01;100281.88;;;12.51;nan
12468;BME280;57850;52.922;6.256;2023-03-25T00:13:28;100277.53;;;12.67;nan
12468;BME280;57850;52.922;6.256;2023-03-25T00:15:56;100298.69;;;12.47;nan
12468;BME280;57850;52.922;6.256;2023-03-25T00:18:25;100294.22;;;12.49;nan
12468;BME280;57850;52.922;6.256;2023-03-25T00:20:54;100271.19;;;12.22;nan
12468;BME280;57850;52.922;6.256;2023-03-25T00:23:22;100266.31;;;11.82;nan
12468;BME280;57850;52.922;6.256;2023-03-25T00:25:48;100218.56;;;11.61;nan
12468;BME280;57850;52.922;6.256;2023-03-25T00:28:18;100173.97;;;11.64;nan
12468;BME280;57850;52.922;6.256;2023-03-25T00:30:44;100142.25;;;11.55;nan
12468;BME280;57850;52.922;6.256;2023-03-25T00:33:11;100112.97;;;11.48;nan
12468;BME280;57850;52.922;6.256;2023-03-25T00:35:38;100064.34;;;11.46;nan
12468;BME280;57850;52.922;6.256;2023-03-25T00:38:09;100043.63;;;11.25;nan
12468;BME280;57850;52.922;6.256;2023-03-25T00:40:35;100008.13;;;11.39;nan
12468;BME280;57850;52.922;6.256;2023-03-25T00:43:03;100004.94;;;11.34;nan
12468;BME280;57850;52.922;6.256;2023-03-25T00:45:32;99986.16;;;11.43;nan
12468;BME280;57850;52.922;6.256;2023-03-25T00:47:59;99970.81;;;11.37;nan
12468;BME280;57850;52.922;6.256;2023-03-25T00:50:26;99959.69;;;11.33;nan
12468;BME280;57850;52.922;6.256;2023-03-25T00:52:52;99970.63;;;11.24;nan
12468;BME280;57850;52.922;6.256;2023-03-25T00:55:19;99939.88;;;11.29;nan
12468;BME280;57850;52.922;6.256;2023-03-25T00:57:45;99919.09;;;11.27;nan
12468;BME280;57850;52.922;6.256;2023-03-25T01:00:14;99933.41;;;11.03;nan
12468;BME280;57850;52.922;6.256;2023-03-25T01:02:43;99902.72;;;11.24;nan
12468;BME280;57850;52.922;6.256;2023-03-25T01:05:11;99894.63;;;11.13;nan
12468;BME280;57850;52.922;6.256;2023-03-25T01:07:39;99884.69;;;11.19;nan
12468;BME280;57850;52.922;6.256;2023-03-25T01:10:07;99877.44;;;11.24;nan
12468;BME280;57850;52.922;6.256;2023-03-25T01:12:34;99869.88;;;11.20;nan
12468;BME280;57850;52.922;6.256;2023-03-25T01:15:00;99881.38;;;11.00;nan
12468;BME280;57850;52.922;6.256;2023-03-25T01:17:27;99838.38;;;11.39;nan
12468;BME280;57850;52.922;6.256;2023-03-25T01:19:55;99833.31;;;11.36;nan
12468;BME280;57850;52.922;6.256;2023-03-25T01:22:21;99843.75;;;11.36;nan
12468;BME280;57850;52.922;6.256;2023-03-25T01:24:48;99857.06;;;11.15;nan
12468;BME280;57850;52.922;6.256;2023-03-25T01:27:14;99853.94;;;11.24;nan
12468;BME280;57850;52.922;6.256;2023-03-25T01:29:41;99846.88;;;11.26;nan
12468;BME280;57850;52.922;6.256;2023-03-25T01:32:07;99848.31;;;11.16;nan
12468;BME280;57850;52.922;6.256;2023-03-25T01:34:34;99848.31;;;11.16;nan
12468;BME280;57850;52.922;6.256;2023-03-25T01:37:04;99856.47;;;11.10;nan
12468;BME280;57850;52.922;6.256;2023-03-25T01:39:30;99881.31;;;11.02;nan
12468;BME280;57850;52.922;6.256;2023-03-25T01:41:57;99878.09;;;11.12;nan
12468;BME280;57850;52.922;6.256;2023-03-25T01:47:28;99875.28;;;11.33;nan
12468;BME280;57850;52.922;6.256;2023-03-25T01:49:54;99877.88;;;11.64;nan
12468;BME280;57850;52.922;6.256;2023-03-25T01:52:24;99899.28;;;11.39;nan
12468;BME280;57850;52.922;6.256;2023-03-25T01:54:54;99921.66;;;11.12;nan
12468;BME280;57850;52.922;6.256;2023-03-25T01:57:22;99920.88;;;11.10;nan
12468;BME280;57850;52.922;6.256;2023-03-25T01:59:51;99924.56;;;11.06;nan
12468;BME280;57850;52.922;6.256;2023-03-25T02:02:19;99907.84;;;11.25;nan
12468;BME280;57850;52.922;6.256;2023-03-25T02:04:52;99926.56;;;11.18;nan
12468;BME280;57850;52.922;6.256;2023-03-25T02:07:25;99916.28;;;11.15;nan
12468;BME280;57850;52.922;6.256;2023-03-25T02:09:54;99918.13;;;11.13;nan
12468;BME280;57850;52.922;6.256;2023-03-25T02:12:21;99924.44;;;11.24;nan
12468;BME280;57850;52.922;6.256;2023-03-25T02:14:48;99933.63;;;11.32;nan
12468;BME280;57850;52.922;6.256;2023-03-25T02:17:20;99925.44;;;11.22;nan
12468;BME280;57850;52.922;6.256;2023-03-25T02:26:07;99943.56;;;11.25;nan
12468;BME280;57850;52.922;6.256;2023-03-25T02:28:42;99948.78;;;11.25;nan
12468;BME280;57850;52.922;6.256;2023-03-25T02:31:28;99962.84;;;11.22;nan
12468;BME280;57850;52.922;6.256;2023-03-25T02:34:20;99965.91;;;11.31;nan
12468;BME280;57850;52.922;6.256;2023-03-25T02:40:02;99974.75;;;11.44;nan
12468;BME280;57850;52.922;6.256;2023-03-25T02:42:35;99981.59;;;11.31;nan
12468;BME280;57850;52.922;6.256;2023-03-25T02:45:07;99973.91;;;11.27;nan
12468;BME280;57850;52.922;6.256;2023-03-25T02:47:41;99973.63;;;11.49;nan
12468;BME280;57850;52.922;6.256;2023-03-25T02:50:13;100000.38;;;11.37;nan
12468;BME280;57850;52.922;6.256;2023-03-25T02:52:43;99986.22;;;11.41;nan
12468;BME280;57850;52.922;6.256;2023-03-25T02:55:16;99992.19;;;11.27;nan
12468;BME280;57850;52.922;6.256;2023-03-25T02:57:46;99972.16;;;11.44;nan
12468;BME280;57850;52.922;6.256;2023-03-25T03:00:19;99966.09;;;11.27;nan
12468;BME280;57850;52.922;6.256;2023-03-25T03:02:51;99941.25;;;11.36;nan
12468;BME280;57850;52.922;6.256;2023-03-25T03:05:25;99957.63;;;11.22;nan
12468;BME280;57850;52.922;6.256;2023-03-25T03:07:57;99934.88;;;11.24;nan
12468;BME280;57850;52.922;6.256;2023-03-25T03:10:35;99938.78;;;11.33;nan
12468;BME280;57850;52.922;6.256;2023-03-25T03:13:15;99926.59;;;11.34;nan
12468;BME280;57850;52.922;6.256;2023-03-25T03:15:51;99912.81;;;11.14;nan
12468;BME280;57850;52.922;6.256;2023-03-25T03:18:28;99925.47;;;11.38;nan
12468;BME280;57850;52.922;6.256;2023-03-25T03:21:07;99919.22;;;11.24;nan
12468;BME280;57850;52.922;6.256;2023-03-25T03:23:46;99940.28;;;11.21;nan
12468;BME280;57850;52.922;6.256;2023-03-25T03:26:25;99936.09;;;11.35;nan
12468;BME280;57850;52.922;6.256;2023-03-25T03:28:59;99941.81;;;11.25;nan
12468;BME280;57850;52.922;6.256;2023-03-25T03:31:34;99943.00;;;11.36;nan
12468;BME280;57850;52.922;6.256;2023-03-25T03:34:06;99957.31;;;11.28;nan
12468;BME280;57850;52.922;6.256;2023-03-25T03:36:39;99942.09;;;11.37;nan
12468;BME280;57850;52.922;6.256;2023-03-25T03:39:11;99948.56;;;11.29;nan
12468;BME280;57850;52.922;6.256;2023-03-25T03:41:40;99947.72;;;11.45;nan
12468;BME280;57850;52.922;6.256;2023-03-25T03:44:12;99955.53;;;11.29;nan
12468;BME280;57850;52.922;6.256;2023-03-25T03:46:43;99955.94;;;11.21;nan
12468;BME280;57850;52.922;6.256;2023-03-25T03:49:15;99932.88;;;11.29;nan
12468;BME280;57850;52.922;6.256;2023-03-25T03:51:45;99948.47;;;11.31;nan
12468;BME280;57850;52.922;6.256;2023-03-25T03:54:16;99942.09;;;11.37;nan
12468;BME280;57850;52.922;6.256;2023-03-25T03:56:52;99952.34;;;11.24;nan
12468;BME280;57850;52.922;6.256;2023-03-25T03:59:25;99938.97;;;11.30;nan
12468;BME280;57850;52.922;6.256;2023-03-25T04:01:55;99932.59;;;11.18;nan
12468;BME280;57850;52.922;6.256;2023-03-25T04:04:24;99924.44;;;11.24;nan
12468;BME280;57850;52.922;6.256;2023-03-25T04:06:55;99921.94;;;11.23;nan
12468;BME280;57850;52.922;6.256;2023-03-25T04:09:24;99910.72;;;11.05;nan
12468;BME280;57850;52.922;6.256;2023-03-25T04:12:02;99908.91;;;11.06;nan
12468;BME280;57850;52.922;6.256;2023-03-25T04:14:30;99900.34;;;11.19;nan
12468;BME280;57850;52.922;6.256;2023-03-25T04:16:57;99899.47;;;11.03;nan
12468;BME280;57850;52.922;6.256;2023-03-25T04:19:25;99890.41;;;11.10;nan
12468;BME280;57850;52.922;6.256;2023-03-25T04:21:51;99894.25;;;11.03;nan
12468;BME280;57850;52.922;6.256;2023-03-25T04:24:18;99897.53;;;10.91;nan
12468;BME280;57850;52.922;6.256;2023-03-25T04:26:45;99891.59;;;11.05;nan
12468;BME280;57850;52.922;6.256;2023-03-25T04:29:13;99875.50;;;11.12;nan
12468;BME280;57850;52.922;6.256;2023-03-25T04:31:40;99871.38;;;11.08;nan
12468;BME280;57850;52.922;6.256;2023-03-25T04:34:10;99859.47;;;11.03;nan
12468;BME280;57850;52.922;6.256;2023-03-25T04:36:37;99824.47;;;11.07;nan
12468;BME280;57850;52.922;6.256;2023-03-25T04:39:06;99833.13;;;10.92;nan
12468;BME280;57850;52.922;6.256;2023-03-25T04:41:32;99821.31;;;10.85;nan
12468;BME280;57850;52.922;6.256;2023-03-25T04:43:59;99798.28;;;11.08;nan
12468;BME280;57850;52.922;6.256;2023-03-25T04:46:27;99792.38;;;10.89;nan
12468;BME280;57850;52.922;6.256;2023-03-25T04:48:54;99792.22;;;10.92;nan
12468;BME280;57850;52.922;6.256;2023-03-25T04:51:21;99784.56;;;10.89;nan
12468;BME280;57850;52.922;6.256;2023-03-25T04:53:47;99800.41;;;11.02;nan
12468;BME280;57850;52.922;6.256;2023-03-25T04:56:16;99795.69;;;11.08;nan
12468;BME280;57850;52.922;6.256;2023-03-25T04:58:43;99805.94;;;10.96;nan
12468;BME280;57850;52.922;6.256;2023-03-25T05:01:19;99802.50;;;10.95;nan
12468;BME280;57850;52.922;6.256;2023-03-25T05:03:48;99799.88;;;11.26;nan
12468;BME280;57850;52.922;6.256;2023-03-25T05:06:15;99834.22;;;11.19;nan
12468;BME280;57850;52.922;6.256;2023-03-25T05:08:43;99835.59;;;11.26;nan
12468;BME280;57850;52.922;6.256;2023-03-25T05:11:09;99867.94;;;11.23;nan
12468;BME280;57850;52.922;6.256;2023-03-25T05:13:36;99870.56;;;11.23;nan
12468;BME280;57850;52.922;6.256;2023-03-25T05:16:02;99903.41;;;11.27;nan
12468;BME280;57850;52.922;6.256;2023-03-25T05:18:29;99907.84;;;11.25;nan
12468;BME280;57850;52.922;6.256;2023-03-25T05:20:57;99923.13;;;11.33;nan
12468;BME280;57850;52.922;6.256;2023-03-25T05:23:26;99921.44;;;11.48;nan
12468;BME280;57850;52.922;6.256;2023-03-25T05:25:56;99938.03;;;11.47;nan
12468;BME280;57850;52.922;6.256;2023-03-25T05:28:22;99961.25;;;11.20;nan
12468;BME280;57850;52.922;6.256;2023-03-25T05:30:49;99929.53;;;11.43;nan
12468;BME280;57850;52.922;6.256;2023-03-25T05:33:17;99930.97;;;11.49;nan
12468;BME280;57850;52.922;6.256;2023-03-25T05:35:44;99948.56;;;11.29;nan
12468;BME280;57850;52.922;6.256;2023-03-25T05:38:12;99948.00;;;11.40;nan
12468;BME280;57850;52.922;6.256;2023-03-25T05:40:42;99948.97;;;11.38;nan
12468;BME280;57850;52.922;6.256;2023-03-25T05:43:10;99954.81;;;11.43;nan
12468;BME280;57850;52.922;6.256;2023-03-25T05:45:36;99956.16;;;11.50;nan
12468;BME280;57850;52.922;6.256;2023-03-25T05:48:03;99965.09;;;11.46;nan
12468;BME280;57850;52.922;6.256;2023-03-25T05:50:30;99959.38;;;11.55;nan
12468;BME280;57850;52.922;6.256;2023-03-25T05:52:57;99947.50;;;11.65;nan
12468;BME280;57850;52.922;6.256;2023-03-25T05:55:27;99963.91;;;11.36;nan
12468;BME280;57850;52.922;6.256;2023-03-25T05:57:54;99941.09;;;11.55;nan
12468;BME280;57850;52.922;6.256;2023-03-25T06:00:21;99951.41;;;11.41;nan
12468;BME280;57850;52.922;6.256;2023-03-25T06:02:48;99975.91;;;11.22;nan
12468;BME280;57850;52.922;6.256;2023-03-25T06:05:16;99974.88;;;11.42;nan
12468;BME280;57850;52.922;6.256;2023-03-25T06:07:48;99981.16;;;11.38;nan
12468;BME280;57850;52.922;6.256;2023-03-25T06:10:16;100005.91;;;11.31;nan
12468;BME280;57850;52.922;6.256;2023-03-25T06:12:46;100012.59;;;11.37;nan
12468;BME280;57850;52.922;6.256;2023-03-25T06:15:15;100027.97;;;11.25;nan
12468;BME280;57850;52.922;6.256;2023-03-25T06:17:44;100044.66;;;11.23;nan
12468;BME280;57850;52.922;6.256;2023-03-25T06:20:13;100039.53;;;11.37;nan
12468;BME280;57850;52.922;6.256;2023-03-25T06:22:42;100046.06;;;11.46;nan
12468;BME280;57850;52.922;6.256;2023-03-25T06:25:14;100058.50;;;11.41;nan
12468;BME280;57850;52.922;6.256;2023-03-25T06:27:41;100063.34;;;11.48;nan
12468;BME280;57850;52.922;6.256;2023-03-25T06:30:11;100087.19;;;11.25;nan
12468;BME280;57850;52.922;6.256;2023-03-25T06:32:38;100068.72;;;11.45;nan
12468;BME280;57850;52.922;6.256;2023-03-25T06:35:07;100076.41;;;11.48;nan
12468;BME280;57850;52.922;6.256;2023-03-25T06:37:34;100098.53;;;11.41;nan
12468;BME280;57850;52.922;6.256;2023-03-25T06:40:01;100092.25;;;11.45;nan
12468;BME280;57850;52.922;6.256;2023-03-25T06:42:29;100084.13;;;11.67;nan
12468;BME280;57850;52.922;6.256;2023-03-25T06:44:56;100102.28;;;11.53;nan
12468;BME280;57850;52.922;6.256;2023-03-25T06:47:26;100084.44;;;11.61;nan
12468;BME280;57850;52.922;6.256;2023-03-25T06:49:52;100112.72;;;11.53;nan
12468;BME280;57850;52.922;6.256;2023-03-25T06:52:19;100102.56;;;11.81;nan
12468;BME280;57850;52.922;6.256;2023-03-25T06:54:46;100099.22;;;11.62;nan
12468;BME280;57850;52.922;6.256;2023-03-25T06:57:12;100109.81;;;11.59;nan
12468;BME280;57850;52.922;6.256;2023-03-25T06:59:39;100113.72;;;11.67;nan
12468;BME280;57850;52.922;6.256;2023-03-25T07:02:06;100104.50;;;11.77;nan
12468;BME280;57850;52.922;6.256;2023-03-25T07:04:34;100100.28;;;11.91;nan
12468;BME280;57850;52.922;6.256;2023-03-25T07:07:01;100122.03;;;11.75;nan
12468;BME280;57850;52.922;6.256;2023-03-25T07:09:28;100124.44;;;11.46;nan
12468;BME280;57850;52.922;6.256;2023-03-25T07:11:55;100102.28;;;11.53;nan
12468;BME280;57850;52.922;6.256;2023-03-25T07:14:21;100087.13;;;11.59;nan
12468;BME280;57850;52.922;6.256;2023-03-25T07:16:48;100074.28;;;11.39;nan
12468;BME280;57850;52.922;6.256;2023-03-25T07:19:15;100061.31;;;11.20;nan
12468;BME280;57850;52.922;6.256;2023-03-25T07:21:43;100027.22;;;11.06;nan
12468;BME280;57850;52.922;6.256;2023-03-25T07:24:10;100002.66;;;10.93;nan
12468;BME280;57850;52.922;6.256;2023-03-25T07:26:36;100013.97;;;10.77;nan
12468;BME280;57850;52.922;6.256;2023-03-25T07:29:03;99978.09;;;11.14;nan
12468;BME280;57850;52.922;6.256;2023-03-25T07:31:30;100002.00;;;10.90;nan
12468;BME280;57850;52.922;6.256;2023-03-25T07:33:57;99974.38;;;11.18;nan
12468;BME280;57850;52.922;6.256;2023-03-25T07:36:27;99991.78;;;11.02;nan
12468;BME280;57850;52.922;6.256;2023-03-25T07:38:55;99982.09;;;11.04;nan
12468;BME280;57850;52.922;6.256;2023-03-25T07:41:21;100002.66;;;10.93;nan
12468;BME280;57850;52.922;6.256;2023-03-25T07:43:48;99994.19;;;10.90;nan
12468;BME280;57850;52.922;6.256;2023-03-25T07:46:15;99993.41;;;10.88;nan
12468;BME280;57850;52.922;6.256;2023-03-25T07:48:41;99993.97;;;10.77;nan
12468;BME280;57850;52.922;6.256;2023-03-25T07:51:08;99982.09;;;11.04;nan
12468;BME280;57850;52.922;6.256;2023-03-25T07:53:34;99989.34;;;10.82;nan
12468;BME280;57850;52.922;6.256;2023-03-25T07:56:06;99970.06;;;10.85;nan
12468;BME280;57850;52.922;6.256;2023-03-25T07:58:33;99944.59;;;10.90;nan
12468;BME280;57850;52.922;6.256;2023-03-25T08:01:00;99952.66;;;10.85;nan
12468;BME280;57850;52.922;6.256;2023-03-25T08:03:26;99947.13;;;10.91;nan
12468;BME280;57850;52.922;6.256;2023-03-25T08:05:53;99961.38;;;10.84;nan
12468;BME280;57850;52.922;6.256;2023-03-25T08:08:20;99936.66;;;10.91;nan
12468;BME280;57850;52.922;6.256;2023-03-25T08:10:47;99928.72;;;11.10;nan
12468;BME280;57850;52.922;6.256;2023-03-25T08:13:15;99935.69;;;11.09;nan
12468;BME280;57850;52.922;6.256;2023-03-25T08:15:42;99954.81;;;11.10;nan
12468;BME280;57850;52.922;6.256;2023-03-25T08:18:08;99959.97;;;11.11;nan
12468;BME280;57850;52.922;6.256;2023-03-25T08:20:35;99968.44;;;11.32;nan
12468;BME280;57850;52.922;6.256;2023-03-25T08:23:02;99977.78;;;11.20;nan
12468;BME280;57850;52.922;6.256;2023-03-25T08:25:28;98284.31;;;11.43;nan
12468;BME280;57850;52.922;6.256;2023-03-25T08:27:55;98594.38;;;11.28;nan
12468;BME280;57850;52.922;6.256;2023-03-25T08:30:23;98819.81;;;11.40;nan
12468;BME280;57850;52.922;6.256;2023-03-25T08:32:50;99055.75;;;11.39;nan
12468;BME280;57850;52.922;6.256;2023-03-25T08:35:19;99229.22;;;11.62;nan
12468;BME280;57850;52.922;6.256;2023-03-25T08:37:47;99391.06;;;11.77;nan
12468;BME280;57850;52.922;6.256;2023-03-25T08:40:13;99539.59;;;11.69;nan
12468;BME280;57850;52.922;6.256;2023-03-25T08:42:42;99637.63;;;11.76;nan
12468;BME280;57850;52.922;6.256;2023-03-25T08:45:10;99756.66;;;11.66;nan
12468;BME280;57850;52.922;6.256;2023-03-25T08:47:38;99802.75;;;11.83;nan
12468;BME280;57850;52.922;6.256;2023-03-25T08:50:07;99822.81;;;11.82;nan
12468;BME280;57850;52.922;6.256;2023-03-25T08:52:34;99844.44;;;11.70;nan
12468;BME280;57850;52.922;6.256;2023-03-25T08:55:00;99859.47;;;11.81;nan
12468;BME280;57850;52.922;6.256;2023-03-25T08:57:27;99877.53;;;11.54;nan
12468;BME280;57850;52.922;6.256;2023-03-25T08:59:54;99890.75;;;11.67;nan
12468;BME280;57850;52.922;6.256;2023-03-25T09:02:20;99906.31;;;11.70;nan
12468;BME280;57850;52.922;6.256;2023-03-25T09:04:48;99896.22;;;11.62;nan
12468;BME280;57850;52.922;6.256;2023-03-25T09:07:15;99914.13;;;11.86;nan
12468;BME280;57850;52.922;6.256;2023-03-25T09:09:44;99899.34;;;12.00;nan
12468;BME280;57850;52.922;6.256;2023-03-25T09:12:11;99937.31;;;11.76;nan
12468;BME280;57850;52.922;6.256;2023-03-25T09:14:37;99925.31;;;12.03;nan
12468;BME280;57850;52.922;6.256;2023-03-25T09:17:04;99942.19;;;11.98;nan
12468;BME280;57850;52.922;6.256;2023-03-25T09:19:32;99934.34;;;11.98;nan
12468;BME280;57850;52.922;6.256;2023-03-25T09:22:00;99976.84;;;12.01;nan
12468;BME280;57850;52.922;6.256;2023-03-25T09:24:27;99988.72;;;12.07;nan
12468;BME280;57850;52.922;6.256;2023-03-25T09:26:58;100015.81;;;12.06;nan
12468;BME280;57850;52.922;6.256;2023-03-25T09:29:25;100017.06;;;12.14;nan
12468;BME280;57850;52.922;6.256;2023-03-25T09:31:52;100066.97;;;11.78;nan
12468;BME280;57850;52.922;6.256;2023-03-25T09:34:19;100007.13;;;11.74;nan
12468;BME280;57850;52.922;6.256;2023-03-25T09:36:46;99961.41;;;11.97;nan
12468;BME280;57850;52.922;6.256;2023-03-25T09:39:14;99977.09;;;11.81;nan
12468;BME280;57850;52.922;6.256;2023-03-25T09:41:56;99958.00;;;12.26;nan
12468;BME280;57850;52.922;6.256;2023-03-25T09:44:29;100000.81;;;12.55;nan
12468;BME280;57850;52.922;6.256;2023-03-25T09:47:00;100016.22;;;12.59;nan
12468;BME280;57850;52.922;6.256;2023-03-25T09:49:35;100061.00;;;12.55;nan
12468;BME280;57850;52.922;6.256;2023-03-25T09:52:03;100064.41;;;12.71;nan
12468;BME280;57850;52.922;6.256;2023-03-25T09:54:36;100057.31;;;12.73;nan
12468;BME280;57850;52.922;6.256;2023-03-25T09:57:07;100063.34;;;12.44;nan
12468;BME280;57850;52.922;6.256;2023-03-25T09:59:40;100090.53;;;12.41;nan
12468;BME280;57850;52.922;6.256;2023-03-25T10:02:19;100112.81;;;12.64;nan
12468;BME280;57850;52.922;6.256;2023-03-25T10:05:02;100091.09;;;12.77;nan
12468;BME280;57850;52.922;6.256;2023-03-25T10:07:42;100101.09;;;12.55;nan
12468;BME280;57850;52.922;6.256;2023-03-25T10:10:18;100094.31;;;12.67;nan
12468;BME280;57850;52.922;6.256;2023-03-25T10:12:53;100103.75;;;12.69;nan
12468;BME280;57850;52.922;6.256;2023-03-25T10:15:29;100114.19;;;12.55;nan
12468;BME280;57850;52.922;6.256;2023-03-25T10:18:07;100148.03;;;12.58;nan
12468;BME280;57850;52.922;6.256;2023-03-25T10:20:46;100143.81;;;12.56;nan
12468;BME280;57850;52.922;6.256;2023-03-25T10:23:21;100120.53;;;13.12;nan
12468;BME280;57850;52.922;6.256;2023-03-25T10:25:56;100171.06;;;12.83;nan
12468;BME280;57850;52.922;6.256;2023-03-25T10:28:27;100154.66;;;12.79;nan
12468;BME280;57850;52.922;6.256;2023-03-25T10:30:57;100183.78;;;12.89;nan
12468;BME280;57850;52.922;6.256;2023-03-25T10:33:30;100169.00;;;12.88;nan
12468;BME280;57850;52.922;6.256;2023-03-25T10:36:01;100153.13;;;12.91;nan
12468;BME280;57850;52.922;6.256;2023-03-25T10:38:30;100153.56;;;12.83;nan
12468;BME280;57850;52.922;6.256;2023-03-25T10:41:10;100171.63;;;12.88;nan
12468;BME280;57850;52.922;6.256;2023-03-25T10:43:38;100173.56;;;12.84;nan
12468;BME280;57850;52.922;6.256;2023-03-25T10:46:12;100177.47;;;12.93;nan
12468;BME280;57850;52.922;6.256;2023-03-25T10:48:41;100216.91;;;12.59;nan
12468;BME280;57850;52.922;6.256;2023-03-25T10:51:09;100172.13;;;12.95;nan
12468;BME280;57850;52.922;6.256;2023-03-25T10:53:38;100177.47;;;12.93;nan
12468;BME280;57850;52.922;6.256;2023-03-25T10:56:10;100169.63;;;13.09;nan
12468;BME280;57850;52.922;6.256;2023-03-25T10:58:39;100178.28;;;13.25;nan
12468;BME280;57850;52.922;6.256;2023-03-25T11:01:10;100181.50;;;12.99;nan
12468;BME280;57850;52.922;6.256;2023-03-25T11:03:39;100197.56;;;12.93;nan
12468;BME280;57850;52.922;6.256;2023-03-25T11:06:17;100185.47;;;13.21;nan
12468;BME280;57850;52.922;6.256;2023-03-25T11:08:57;100176.09;;;13.17;nan
12468;BME280;57850;52.922;6.256;2023-03-25T11:11:31;100191.59;;;13.36;nan
12468;BME280;57850;52.922;6.256;2023-03-25T11:13:58;100193.72;;;13.29;nan
12468;BME280;57850;52.922;6.256;2023-03-25T11:16:25;100185.50;;;13.35;nan
12468;BME280;57850;52.922;6.256;2023-03-25T11:18:52;100184.94;;;13.30;nan
12468;BME280;57850;52.922;6.256;2023-03-25T11:21:19;100155.63;;;13.82;nan
12468;BME280;57850;52.922;6.256;2023-03-25T11:23:47;100184.53;;;13.66;nan
12468;BME280;57850;52.922;6.256;2023-03-25T11:26:18;100182.41;;;13.73;nan
12468;BME280;57850;52.922;6.256;2023-03-25T11:28:48;100191.50;;;13.37;nan
12468;BME280;57850;52.922;6.256;2023-03-25T11:31:16;100188.00;;;13.53;nan
12468;BME280;57850;52.922;6.256;2023-03-25T11:33:44;100204.28;;;13.58;nan
12468;BME280;57850;52.922;6.256;2023-03-25T11:36:25;100195.31;;;13.62;nan
12468;BME280;57850;52.922;6.256;2023-03-25T11:38:56;100199.91;;;13.72;nan
12468;BME280;57850;52.922;6.256;2023-03-25T11:41:27;100198.13;;;13.59;nan
12468;BME280;57850;52.922;6.256;2023-03-25T11:43:56;100201.41;;;13.62;nan
12468;BME280;57850;52.922;6.256;2023-03-25T11:46:23;100210.28;;;13.60;nan
12468;BME280;57850;52.922;6.256;2023-03-25T11:48:49;100218.78;;;13.93;nan
12468;BME280;57850;52.922;6.256;2023-03-25T11:51:19;100227.75;;;13.89;nan
12468;BME280;57850;52.922;6.256;2023-03-25T11:53:49;100235.25;;;13.81;nan
12468;BME280;57850;52.922;6.256;2023-03-25T11:56:23;100244.88;;;13.80;nan
12468;BME280;57850;52.922;6.256;2023-03-25T11:58:58;100237.31;;;13.46;nan
12468;BME280;57850;52.922;6.256;2023-03-25T12:01:28;100220.50;;;13.64;nan
12468;BME280;57850;52.922;6.256;2023-03-25T12:04:06;100247.44;;;13.52;nan
12468;BME280;57850;52.922;6.256;2023-03-25T12:06:34;100218.38;;;13.85;nan
12468;BME280;57850;52.922;6.256;2023-03-25T12:09:06;100217.56;;;13.99;nan
12468;BME280;57850;52.922;6.256;2023-03-25T12:11:37;100235.44;;;13.78;nan
12468;BME280;57850;52.922;6.256;2023-03-25T12:14:19;100220.56;;;13.92;nan
12468;BME280;57850;52.922;6.256;2023-03-25T12:16:59;100205.53;;;14.79;nan
12468;BME280;57850;52.922;6.256;2023-03-25T12:19:36;100263.19;;;13.66;nan
12468;BME280;57850;52.922;6.256;2023-03-25T12:22:16;100215.88;;;13.98;nan
12468;BME280;57850;52.922;6.256;2023-03-25T12:25:06;100231.22;;;13.89;nan
12468;BME280;57850;52.922;6.256;2023-03-25T12:27:46;100230.97;;;14.08;nan
12468;BME280;57850;52.922;6.256;2023-03-25T12:30:28;100228.44;;;14.07;nan
12468;BME280;57850;52.922;6.256;2023-03-25T12:33:07;100224.91;;;13.64;nan
12468;BME280;57850;52.922;6.256;2023-03-25T12:35:42;100223.75;;;14.26;nan
12468;BME280;57850;52.922;6.256;2023-03-25T12:38:23;100205.88;;;14.46;nan
12468;BME280;57850;52.922;6.256;2023-03-25T12:41:02;100211.28;;;14.72;nan
12468;BME280;57850;52.922;6.256;2023-03-25T12:43:38;100216.78;;;14.40;nan
12468;BME280;57850;52.922;6.256;2023-03-25T12:46:19;100228.72;;;14.16;nan
12468;BME280;57850;52.922;6.256;2023-03-25T12:49:01;100240.84;;;14.33;nan
12468;BME280;57850;52.922;6.256;2023-03-25T12:51:38;100252.31;;;14.02;nan
12468;BME280;57850;52.922;6.256;2023-03-25T12:54:23;100234.63;;;14.20;nan
12468;BME280;57850;52.922;6.256;2023-03-25T12:57:01;100231.78;;;13.94;nan
12468;BME280;57850;52.922;6.256;2023-03-25T13:00:18;100218.56;;;13.82;nan
12468;BME280;57850;52.922;6.256;2023-03-25T13:03:20;100212.50;;;14.66;nan
12468;BME280;57850;52.922;6.256;2023-03-25T13:05:58;100230.03;;;14.23;nan
12468;BME280;57850;52.922;6.256;2023-03-25T13:08:29;100232.84;;;14.06;nan
12468;BME280;57850;52.922;6.256;2023-03-25T13:11:01;100227.78;;;14.03;nan
12468;BME280;57850;52.922;6.256;2023-03-25T13:13:32;100227.38;;;13.81;nan
12468;BME280;57850;52.922;6.256;2023-03-25T13:16:04;100252.09;;;13.91;nan
12468;BME280;57850;52.922;6.256;2023-03-25T13:18:38;100236.84;;;13.98;nan
12468;BME280;57850;52.922;6.256;2023-03-25T13:21:09;100210.56;;;14.41;nan
12468;BME280;57850;52.922;6.256;2023-03-25T13:23:38;100192.34;;;14.67;nan
12468;BME280;57850;52.922;6.256;2023-03-25T13:26:08;100215.50;;;14.74;nan
12468;BME280;57850;52.922;6.256;2023-03-25T13:28:38;100205.00;;;14.74;nan
12468;BME280;57850;52.922;6.256;2023-03-25T13:31:11;100170.50;;;15.72;nan
12468;BME280;57850;52.922;6.256;2023-03-25T13:33:43;100204.59;;;15.07;nan
12468;BME280;57850;52.922;6.256;2023-03-25T13:36:15;100203.59;;;14.69;nan
12468;BME280;57850;52.922;6.256;2023-03-25T13:38:47;100210.06;;;14.63;nan
12468;BME280;57850;52.922;6.256;2023-03-25T13:41:17;100214.34;;;14.37;nan
12468;BME280;57850;52.922;6.256;2023-03-25T13:43:53;100235.13;;;13.68;nan
12468;BME280;57850;52.922;6.256;2023-03-25T13:46:24;100243.50;;;13.89;nan